Terminal Aerodrome Forecast
Issued by NWS Jackson, KY

Home | Current Version | Previous Version | Text Only | Print | Product List | Glossary On
Versions: 1 2 3 4 5 6 7 8 9 10 11 12 13
000
FTUS43 KJKL 261739
TAFJKL
TAF
KJKL 261739Z 2618/2718 VRB05KT P6SM SCT005 BKN150
     FM270000 VRB03KT P6SM VCTS BKN035CB
     FM270300 VRB03KT P6SM BKN050
     FM271200 VRB03KT P6SM BKN030=

USA.gov is the U.S. government's official web portal to all federal, state and local government web resources and services.